sensor_id;sensor_type;location;lat;lon;timestamp;P1;durP1;ratioP1;P2;durP2;ratioP2
2099;SDS011;1055;48.854;9.302;2023-04-24T00:01:20;4.70;;;1.20;;
2099;SDS011;1055;48.854;9.302;2023-04-24T00:03:46;5.13;;;1.15;;
2099;SDS011;1055;48.854;9.302;2023-04-24T00:06:11;6.13;;;1.30;;
2099;SDS011;1055;48.854;9.302;2023-04-24T00:08:37;5.10;;;1.20;;
2099;SDS011;1055;48.854;9.302;2023-04-24T00:11:03;5.67;;;1.20;;
2099;SDS011;1055;48.854;9.302;2023-04-24T00:13:34;4.60;;;1.08;;
2099;SDS011;1055;48.854;9.302;2023-04-24T00:16:00;6.87;;;1.30;;
2099;SDS011;1055;48.854;9.302;2023-04-24T00:18:26;4.50;;;0.93;;
2099;SDS011;1055;48.854;9.302;2023-04-24T00:20:52;4.75;;;1.30;;
2099;SDS011;1055;48.854;9.302;2023-04-24T00:23:18;4.95;;;1.10;;
2099;SDS011;1055;48.854;9.302;2023-04-24T00:25:44;7.30;;;1.70;;
2099;SDS011;1055;48.854;9.302;2023-04-24T00:28:11;5.28;;;1.50;;
2099;SDS011;1055;48.854;9.302;2023-04-24T00:30:36;4.53;;;0.85;;
2099;SDS011;1055;48.854;9.302;2023-04-24T00:33:07;4.33;;;1.10;;
2099;SDS011;1055;48.854;9.302;2023-04-24T00:35:42;5.40;;;1.20;;
2099;SDS011;1055;48.854;9.302;2023-04-24T00:38:09;5.90;;;1.42;;
2099;SDS011;1055;48.854;9.302;2023-04-24T00:40:35;7.07;;;1.00;;
2099;SDS011;1055;48.854;9.302;2023-04-24T00:43:01;4.40;;;1.10;;
2099;SDS011;1055;48.854;9.302;2023-04-24T00:45:29;4.67;;;1.10;;
2099;SDS011;1055;48.854;9.302;2023-04-24T00:47:58;4.60;;;1.40;;
2099;SDS011;1055;48.854;9.302;2023-04-24T00:50:28;6.30;;;1.40;;
2099;SDS011;1055;48.854;9.302;2023-04-24T00:53:01;5.20;;;1.00;;
2099;SDS011;1055;48.854;9.302;2023-04-24T00:55:27;7.63;;;1.48;;
2099;SDS011;1055;48.854;9.302;2023-04-24T00:57:56;4.70;;;0.90;;
2099;SDS011;1055;48.854;9.302;2023-04-24T01:00:23;5.65;;;1.20;;
2099;SDS011;1055;48.854;9.302;2023-04-24T01:02:53;5.53;;;1.40;;
2099;SDS011;1055;48.854;9.302;2023-04-24T01:05:22;4.50;;;1.15;;
2099;SDS011;1055;48.854;9.302;2023-04-24T01:07:48;4.70;;;1.08;;
2099;SDS011;1055;48.854;9.302;2023-04-24T01:10:14;4.40;;;1.00;;
2099;SDS011;1055;48.854;9.302;2023-04-24T01:12:45;5.05;;;1.10;;
2099;SDS011;1055;48.854;9.302;2023-04-24T01:15:11;7.30;;;1.00;;
2099;SDS011;1055;48.854;9.302;2023-04-24T01:17:39;4.40;;;1.20;;
2099;SDS011;1055;48.854;9.302;2023-04-24T01:20:08;4.90;;;1.13;;
2099;SDS011;1055;48.854;9.302;2023-04-24T01:22:35;5.20;;;0.90;;
2099;SDS011;1055;48.854;9.302;2023-04-24T01:25:02;5.73;;;1.20;;
2099;SDS011;1055;48.854;9.302;2023-04-24T01:27:31;5.38;;;1.00;;
2099;SDS011;1055;48.854;9.302;2023-04-24T01:30:00;7.13;;;1.10;;
2099;SDS011;1055;48.854;9.302;2023-04-24T01:32:25;4.57;;;1.07;;
2099;SDS011;1055;48.854;9.302;2023-04-24T01:34:52;4.80;;;0.90;;
2099;SDS011;1055;48.854;9.302;2023-04-24T01:37:20;5.40;;;1.20;;
2099;SDS011;1055;48.854;9.302;2023-04-24T01:39:45;4.50;;;1.10;;
2099;SDS011;1055;48.854;9.302;2023-04-24T01:42:11;4.20;;;0.90;;
2099;SDS011;1055;48.854;9.302;2023-04-24T01:44:38;5.10;;;1.10;;
2099;SDS011;1055;48.854;9.302;2023-04-24T01:47:03;7.13;;;1.10;;
2099;SDS011;1055;48.854;9.302;2023-04-24T01:49:30;4.60;;;1.00;;
2099;SDS011;1055;48.854;9.302;2023-04-24T01:51:56;4.60;;;1.00;;
2099;SDS011;1055;48.854;9.302;2023-04-24T01:54:22;5.03;;;1.00;;
2099;SDS011;1055;48.854;9.302;2023-04-24T01:56:47;8.37;;;1.20;;
2099;SDS011;1055;48.854;9.302;2023-04-24T01:59:13;4.37;;;0.90;;
2099;SDS011;1055;48.854;9.302;2023-04-24T02:01:41;5.78;;;1.25;;
2099;SDS011;1055;48.854;9.302;2023-04-24T02:04:07;4.90;;;1.30;;
2099;SDS011;1055;48.854;9.302;2023-04-24T02:06:33;5.15;;;0.90;;
2099;SDS011;1055;48.854;9.302;2023-04-24T02:08:59;4.80;;;1.20;;
2099;SDS011;1055;48.854;9.302;2023-04-24T02:11:25;4.63;;;1.20;;
2099;SDS011;1055;48.854;9.302;2023-04-24T02:13:51;4.83;;;1.30;;
2099;SDS011;1055;48.854;9.302;2023-04-24T02:16:17;6.93;;;1.23;;
2099;SDS011;1055;48.854;9.302;2023-04-24T02:18:43;6.30;;;1.57;;
2099;SDS011;1055;48.854;9.302;2023-04-24T02:21:09;5.33;;;1.20;;
2099;SDS011;1055;48.854;9.302;2023-04-24T02:23:34;6.10;;;1.17;;
2099;SDS011;1055;48.854;9.302;2023-04-24T02:26:00;5.17;;;1.97;;
2099;SDS011;1055;48.854;9.302;2023-04-24T02:28:26;4.40;;;1.10;;
2099;SDS011;1055;48.854;9.302;2023-04-24T02:30:51;5.80;;;1.40;;
2099;SDS011;1055;48.854;9.302;2023-04-24T02:33:17;5.20;;;1.20;;
2099;SDS011;1055;48.854;9.302;2023-04-24T02:35:43;4.40;;;1.30;;
2099;SDS011;1055;48.854;9.302;2023-04-24T02:38:08;4.27;;;1.00;;
2099;SDS011;1055;48.854;9.302;2023-04-24T02:40:34;5.50;;;1.13;;
2099;SDS011;1055;48.854;9.302;2023-04-24T02:43:00;6.60;;;1.17;;
2099;SDS011;1055;48.854;9.302;2023-04-24T02:45:25;4.73;;;1.30;;
2099;SDS011;1055;48.854;9.302;2023-04-24T02:47:51;4.90;;;1.03;;
2099;SDS011;1055;48.854;9.302;2023-04-24T02:50:16;4.40;;;1.20;;
2099;SDS011;1055;48.854;9.302;2023-04-24T02:52:42;4.73;;;1.20;;
2099;SDS011;1055;48.854;9.302;2023-04-24T02:55:08;5.10;;;1.20;;
2099;SDS011;1055;48.854;9.302;2023-04-24T02:57:33;6.07;;;1.43;;
2099;SDS011;1055;48.854;9.302;2023-04-24T02:59:59;5.43;;;1.20;;
2099;SDS011;1055;48.854;9.302;2023-04-24T03:02:25;5.37;;;1.27;;
2099;SDS011;1055;48.854;9.302;2023-04-24T03:04:50;4.73;;;1.17;;
2099;SDS011;1055;48.854;9.302;2023-04-24T03:07:16;4.67;;;1.20;;
2099;SDS011;1055;48.854;9.302;2023-04-24T03:09:41;4.97;;;1.17;;
2099;SDS011;1055;48.854;9.302;2023-04-24T03:12:07;4.90;;;1.20;;
2099;SDS011;1055;48.854;9.302;2023-04-24T03:14:33;4.93;;;1.30;;
2099;SDS011;1055;48.854;9.302;2023-04-24T03:16:58;6.93;;;1.30;;
2099;SDS011;1055;48.854;9.302;2023-04-24T03:19:24;5.50;;;1.50;;
2099;SDS011;1055;48.854;9.302;2023-04-24T03:21:50;5.00;;;1.13;;
2099;SDS011;1055;48.854;9.302;2023-04-24T03:24:15;6.20;;;1.63;;
2099;SDS011;1055;48.854;9.302;2023-04-24T03:26:41;5.40;;;1.20;;
2099;SDS011;1055;48.854;9.302;2023-04-24T03:29:07;5.10;;;1.40;;
2099;SDS011;1055;48.854;9.302;2023-04-24T03:31:32;5.30;;;1.20;;
2099;SDS011;1055;48.854;9.302;2023-04-24T03:33:58;5.33;;;1.40;;
2099;SDS011;1055;48.854;9.302;2023-04-24T03:36:24;5.33;;;1.00;;
2099;SDS011;1055;48.854;9.302;2023-04-24T03:38:51;5.20;;;1.20;;
2099;SDS011;1055;48.854;9.302;2023-04-24T03:41:16;4.40;;;1.00;;
2099;SDS011;1055;48.854;9.302;2023-04-24T03:43:42;4.80;;;1.20;;
2099;SDS011;1055;48.854;9.302;2023-04-24T03:46:07;4.60;;;1.10;;
2099;SDS011;1055;48.854;9.302;2023-04-24T03:48:34;4.75;;;0.93;;
2099;SDS011;1055;48.854;9.302;2023-04-24T03:51:00;6.15;;;1.42;;
2099;SDS011;1055;48.854;9.302;2023-04-24T03:53:26;5.50;;;1.30;;
2099;SDS011;1055;48.854;9.302;2023-04-24T03:55:52;4.60;;;1.17;;
2099;SDS011;1055;48.854;9.302;2023-04-24T03:58:18;5.40;;;1.23;;
2099;SDS011;1055;48.854;9.302;2023-04-24T04:00:44;7.00;;;1.27;;
2099;SDS011;1055;48.854;9.302;2023-04-24T04:03:09;5.50;;;1.20;;
2099;SDS011;1055;48.854;9.302;2023-04-24T04:05:35;4.87;;;1.17;;
2099;SDS011;1055;48.854;9.302;2023-04-24T04:08:01;4.50;;;1.20;;
2099;SDS011;1055;48.854;9.302;2023-04-24T04:10:27;6.30;;;1.42;;
2099;SDS011;1055;48.854;9.302;2023-04-24T04:12:52;4.53;;;1.17;;
2099;SDS011;1055;48.854;9.302;2023-04-24T04:15:18;4.70;;;1.27;;
2099;SDS011;1055;48.854;9.302;2023-04-24T04:17:43;4.93;;;1.23;;
2099;SDS011;1055;48.854;9.302;2023-04-24T04:20:10;5.90;;;1.20;;
2099;SDS011;1055;48.854;9.302;2023-04-24T04:22:36;5.78;;;1.17;;
2099;SDS011;1055;48.854;9.302;2023-04-24T04:25:03;5.17;;;1.23;;
2099;SDS011;1055;48.854;9.302;2023-04-24T04:27:29;5.25;;;1.05;;
2099;SDS011;1055;48.854;9.302;2023-04-24T04:29:57;5.35;;;1.08;;
2099;SDS011;1055;48.854;9.302;2023-04-24T04:32:26;4.32;;;1.10;;
2099;SDS011;1055;48.854;9.302;2023-04-24T04:34:52;5.03;;;1.00;;
2099;SDS011;1055;48.854;9.302;2023-04-24T04:37:18;4.20;;;0.98;;
2099;SDS011;1055;48.854;9.302;2023-04-24T04:39:44;4.57;;;1.20;;
2099;SDS011;1055;48.854;9.302;2023-04-24T04:42:10;4.60;;;1.13;;
2099;SDS011;1055;48.854;9.302;2023-04-24T04:44:35;6.13;;;1.50;;
2099;SDS011;1055;48.854;9.302;2023-04-24T04:47:01;6.60;;;1.63;;
2099;SDS011;1055;48.854;9.302;2023-04-24T04:49:31;6.38;;;1.30;;
2099;SDS011;1055;48.854;9.302;2023-04-24T04:51:58;8.32;;;1.80;;
2099;SDS011;1055;48.854;9.302;2023-04-24T04:54:26;5.85;;;1.70;;
2099;SDS011;1055;48.854;9.302;2023-04-24T04:56:57;4.80;;;1.53;;
2099;SDS011;1055;48.854;9.302;2023-04-24T04:59:31;5.03;;;1.67;;
2099;SDS011;1055;48.854;9.302;2023-04-24T05:02:00;6.38;;;1.92;;
2099;SDS011;1055;48.854;9.302;2023-04-24T05:04:26;4.67;;;1.40;;
2099;SDS011;1055;48.854;9.302;2023-04-24T05:06:52;4.80;;;1.40;;
2099;SDS011;1055;48.854;9.302;2023-04-24T05:09:18;5.88;;;1.70;;
2099;SDS011;1055;48.854;9.302;2023-04-24T05:11:43;6.47;;;1.43;;
2099;SDS011;1055;48.854;9.302;2023-04-24T05:14:09;5.17;;;1.77;;
2099;SDS011;1055;48.854;9.302;2023-04-24T05:16:37;4.85;;;1.55;;
2099;SDS011;1055;48.854;9.302;2023-04-24T05:19:04;4.45;;;1.20;;
2099;SDS011;1055;48.854;9.302;2023-04-24T05:21:30;8.93;;;2.30;;
2099;SDS011;1055;48.854;9.302;2023-04-24T05:23:56;5.35;;;1.50;;
2099;SDS011;1055;48.854;9.302;2023-04-24T05:26:22;5.93;;;1.67;;
2099;SDS011;1055;48.854;9.302;2023-04-24T05:28:48;5.00;;;1.48;;
2099;SDS011;1055;48.854;9.302;2023-04-24T05:31:14;4.90;;;1.70;;
2099;SDS011;1055;48.854;9.302;2023-04-24T05:33:40;5.43;;;1.60;;
2099;SDS011;1055;48.854;9.302;2023-04-24T05:36:06;4.87;;;1.63;;
2099;SDS011;1055;48.854;9.302;2023-04-24T05:38:33;5.03;;;1.95;;
2099;SDS011;1055;48.854;9.302;2023-04-24T05:40:59;4.80;;;1.67;;
2099;SDS011;1055;48.854;9.302;2023-04-24T05:43:29;6.47;;;1.88;;
2099;SDS011;1055;48.854;9.302;2023-04-24T05:46:02;5.90;;;1.63;;
2099;SDS011;1055;48.854;9.302;2023-04-24T05:48:28;5.53;;;2.03;;
2099;SDS011;1055;48.854;9.302;2023-04-24T05:51:00;5.68;;;1.92;;
2099;SDS011;1055;48.854;9.302;2023-04-24T05:53:26;5.80;;;1.90;;
2099;SDS011;1055;48.854;9.302;2023-04-24T05:55:52;5.10;;;1.63;;
2099;SDS011;1055;48.854;9.302;2023-04-24T05:58:17;6.07;;;2.00;;
2099;SDS011;1055;48.854;9.302;2023-04-24T06:00:43;5.80;;;2.00;;
2099;SDS011;1055;48.854;9.302;2023-04-24T06:03:11;5.85;;;1.88;;
2099;SDS011;1055;48.854;9.302;2023-04-24T06:05:36;5.20;;;1.60;;
2099;SDS011;1055;48.854;9.302;2023-04-24T06:08:02;5.80;;;2.10;;
2099;SDS011;1055;48.854;9.302;2023-04-24T06:10:28;6.27;;;1.90;;
2099;SDS011;1055;48.854;9.302;2023-04-24T06:12:53;6.90;;;1.87;;
2099;SDS011;1055;48.854;9.302;2023-04-24T06:15:21;5.55;;;2.00;;
2099;SDS011;1055;48.854;9.302;2023-04-24T06:17:47;5.50;;;2.10;;
2099;SDS011;1055;48.854;9.302;2023-04-24T06:20:12;5.23;;;1.97;;
2099;SDS011;1055;48.854;9.302;2023-04-24T06:22:38;5.50;;;2.10;;
2099;SDS011;1055;48.854;9.302;2023-04-24T06:25:05;5.80;;;2.05;;
2099;SDS011;1055;48.854;9.302;2023-04-24T06:27:31;6.10;;;2.15;;
2099;SDS011;1055;48.854;9.302;2023-04-24T06:29:56;5.47;;;2.27;;
2099;SDS011;1055;48.854;9.302;2023-04-24T06:32:22;5.43;;;2.10;;
2099;SDS011;1055;48.854;9.302;2023-04-24T06:34:49;5.10;;;1.92;;
2099;SDS011;1055;48.854;9.302;2023-04-24T06:37:15;5.55;;;2.00;;
2099;SDS011;1055;48.854;9.302;2023-04-24T06:39:41;5.97;;;2.33;;
2099;SDS011;1055;48.854;9.302;2023-04-24T06:42:07;5.87;;;1.90;;
2099;SDS011;1055;48.854;9.302;2023-04-24T06:44:34;7.65;;;2.25;;
2099;SDS011;1055;48.854;9.302;2023-04-24T06:47:05;5.63;;;1.92;;
2099;SDS011;1055;48.854;9.302;2023-04-24T06:49:35;6.28;;;2.28;;
2099;SDS011;1055;48.854;9.302;2023-04-24T06:52:05;8.10;;;3.00;;
2099;SDS011;1055;48.854;9.302;2023-04-24T06:54:31;9.00;;;2.40;;
2099;SDS011;1055;48.854;9.302;2023-04-24T06:56:57;6.90;;;2.08;;
2099;SDS011;1055;48.854;9.302;2023-04-24T06:59:24;5.43;;;2.25;;
2099;SDS011;1055;48.854;9.302;2023-04-24T07:01:49;6.20;;;2.38;;
2099;SDS011;1055;48.854;9.302;2023-04-24T07:04:16;5.13;;;1.70;;
2099;SDS011;1055;48.854;9.302;2023-04-24T07:06:42;5.10;;;2.00;;
2099;SDS011;1055;48.854;9.302;2023-04-24T07:09:08;7.93;;;1.95;;
2099;SDS011;1055;48.854;9.302;2023-04-24T07:11:35;6.40;;;2.17;;
2099;SDS011;1055;48.854;9.302;2023-04-24T07:14:03;5.40;;;2.10;;
2099;SDS011;1055;48.854;9.302;2023-04-24T07:16:28;6.07;;;2.50;;
2099;SDS011;1055;48.854;9.302;2023-04-24T07:18:55;6.07;;;2.20;;
2099;SDS011;1055;48.854;9.302;2023-04-24T07:21:20;5.27;;;2.07;;
2099;SDS011;1055;48.854;9.302;2023-04-24T07:23:46;6.30;;;1.80;;
2099;SDS011;1055;48.854;9.302;2023-04-24T07:26:12;6.10;;;2.00;;
2099;SDS011;1055;48.854;9.302;2023-04-24T07:28:39;6.80;;;3.20;;
2099;SDS011;1055;48.854;9.302;2023-04-24T07:31:05;5.60;;;2.17;;
2099;SDS011;1055;48.854;9.302;2023-04-24T07:33:31;7.30;;;2.50;;
2099;SDS011;1055;48.854;9.302;2023-04-24T07:35:57;5.40;;;1.97;;
2099;SDS011;1055;48.854;9.302;2023-04-24T07:38:23;5.50;;;2.40;;
2099;SDS011;1055;48.854;9.302;2023-04-24T07:40:50;6.38;;;2.28;;
2099;SDS011;1055;48.854;9.302;2023-04-24T07:43:16;6.50;;;2.33;;
2099;SDS011;1055;48.854;9.302;2023-04-24T07:45:43;6.55;;;2.10;;
2099;SDS011;1055;48.854;9.302;2023-04-24T07:48:09;7.95;;;2.50;;
2099;SDS011;1055;48.854;9.302;2023-04-24T07:50:35;5.20;;;1.57;;
2099;SDS011;1055;48.854;9.302;2023-04-24T07:53:01;5.50;;;2.20;;
2099;SDS011;1055;48.854;9.302;2023-04-24T07:55:27;7.45;;;1.77;;
2099;SDS011;1055;48.854;9.302;2023-04-24T07:57:53;5.90;;;2.00;;
2099;SDS011;1055;48.854;9.302;2023-04-24T08:00:19;6.77;;;2.40;;
2099;SDS011;1055;48.854;9.302;2023-04-24T08:02:45;5.37;;;1.80;;
2099;SDS011;1055;48.854;9.302;2023-04-24T08:05:11;6.50;;;2.00;;
2099;SDS011;1055;48.854;9.302;2023-04-24T08:07:36;4.70;;;1.53;;
2099;SDS011;1055;48.854;9.302;2023-04-24T08:10:03;5.10;;;1.85;;
2099;SDS011;1055;48.854;9.302;2023-04-24T08:12:29;5.30;;;1.48;;
2099;SDS011;1055;48.854;9.302;2023-04-24T08:14:55;6.10;;;1.90;;
2099;SDS011;1055;48.854;9.302;2023-04-24T08:17:21;4.50;;;1.60;;
2099;SDS011;1055;48.854;9.302;2023-04-24T08:19:46;4.70;;;1.30;;
2099;SDS011;1055;48.854;9.302;2023-04-24T08:22:16;5.70;;;1.90;;
2099;SDS011;1055;48.854;9.302;2023-04-24T08:24:41;4.90;;;1.60;;
2099;SDS011;1055;48.854;9.302;2023-04-24T08:27:08;9.02;;;2.47;;
2099;SDS011;1055;48.854;9.302;2023-04-24T08:29:35;5.53;;;1.60;;
2099;SDS011;1055;48.854;9.302;2023-04-24T08:32:01;7.35;;;1.55;;
2099;SDS011;1055;48.854;9.302;2023-04-24T08:34:27;6.57;;;2.10;;
2099;SDS011;1055;48.854;9.302;2023-04-24T08:36:52;5.00;;;1.70;;
2099;SDS011;1055;48.854;9.302;2023-04-24T08:39:18;5.43;;;2.00;;
2099;SDS011;1055;48.854;9.302;2023-04-24T08:41:44;5.27;;;1.50;;
2099;SDS011;1055;48.854;9.302;2023-04-24T08:44:10;5.10;;;1.57;;
2099;SDS011;1055;48.854;9.302;2023-04-24T08:46:38;5.35;;;1.80;;
2099;SDS011;1055;48.854;9.302;2023-04-24T08:49:05;5.55;;;2.15;;
2099;SDS011;1055;48.854;9.302;2023-04-24T08:51:31;7.03;;;2.00;;
2099;SDS011;1055;48.854;9.302;2023-04-24T08:53:57;14.27;;;2.40;;
2099;SDS011;1055;48.854;9.302;2023-04-24T08:56:23;6.20;;;2.20;;
2099;SDS011;1055;48.854;9.302;2023-04-24T08:58:50;6.78;;;1.80;;
2099;SDS011;1055;48.854;9.302;2023-04-24T09:01:18;6.43;;;2.00;;
2099;SDS011;1055;48.854;9.302;2023-04-24T09:03:45;5.43;;;2.00;;
2099;SDS011;1055;48.854;9.302;2023-04-24T09:06:13;4.70;;;1.30;;
2099;SDS011;1055;48.854;9.302;2023-04-24T09:08:41;5.10;;;1.70;;
2099;SDS011;1055;48.854;9.302;2023-04-24T09:11:08;6.97;;;1.98;;
2099;SDS011;1055;48.854;9.302;2023-04-24T09:13:36;4.88;;;1.80;;
2099;SDS011;1055;48.854;9.302;2023-04-24T09:16:02;5.13;;;1.40;;
2099;SDS011;1055;48.854;9.302;2023-04-24T09:18:28;5.67;;;2.00;;
2099;SDS011;1055;48.854;9.302;2023-04-24T09:21:01;4.80;;;1.80;;
2099;SDS011;1055;48.854;9.302;2023-04-24T09:23:29;6.07;;;1.33;;
2099;SDS011;1055;48.854;9.302;2023-04-24T09:25:57;5.55;;;2.13;;
2099;SDS011;1055;48.854;9.302;2023-04-24T09:28:29;6.05;;;1.67;;
2099;SDS011;1055;48.854;9.302;2023-04-24T09:31:05;5.75;;;1.08;;
2099;SDS011;1055;48.854;9.302;2023-04-24T09:33:37;4.40;;;1.13;;
2099;SDS011;1055;48.854;9.302;2023-04-24T09:36:02;5.00;;;1.67;;
2099;SDS011;1055;48.854;9.302;2023-04-24T09:38:35;5.23;;;1.30;;
2099;SDS011;1055;48.854;9.302;2023-04-24T09:41:03;4.68;;;1.25;;
2099;SDS011;1055;48.854;9.302;2023-04-24T09:58:47;5.65;;;2.00;;
2099;SDS011;1055;48.854;9.302;2023-04-24T10:01:12;5.30;;;2.00;;
2099;SDS011;1055;48.854;9.302;2023-04-24T10:03:38;5.63;;;1.67;;
2099;SDS011;1055;48.854;9.302;2023-04-24T10:06:07;4.90;;;1.52;;
2099;SDS011;1055;48.854;9.302;2023-04-24T10:08:37;4.93;;;1.80;;
2099;SDS011;1055;48.854;9.302;2023-04-24T10:11:03;4.50;;;1.40;;
2099;SDS011;1055;48.854;9.302;2023-04-24T10:13:29;5.33;;;1.53;;
2099;SDS011;1055;48.854;9.302;2023-04-24T10:15:56;6.00;;;1.83;;
2099;SDS011;1055;48.854;9.302;2023-04-24T10:18:23;5.00;;;1.55;;
2099;SDS011;1055;48.854;9.302;2023-04-24T10:20:50;6.03;;;1.20;;
2099;SDS011;1055;48.854;9.302;2023-04-24T10:23:16;5.05;;;1.50;;
2099;SDS011;1055;48.854;9.302;2023-04-24T10:25:44;4.90;;;1.60;;
2099;SDS011;1055;48.854;9.302;2023-04-24T10:28:10;5.80;;;1.60;;
2099;SDS011;1055;48.854;9.302;2023-04-24T10:30:37;6.47;;;1.90;;
2099;SDS011;1055;48.854;9.302;2023-04-24T10:33:03;4.73;;;1.60;;
2099;SDS011;1055;48.854;9.302;2023-04-24T10:35:32;4.83;;;1.60;;
2099;SDS011;1055;48.854;9.302;2023-04-24T10:38:11;5.00;;;1.35;;
2099;SDS011;1055;48.854;9.302;2023-04-24T10:40:38;4.60;;;1.55;;
2099;SDS011;1055;48.854;9.302;2023-04-24T10:43:05;4.90;;;1.25;;
2099;SDS011;1055;48.854;9.302;2023-04-24T10:45:33;8.05;;;2.17;;
2099;SDS011;1055;48.854;9.302;2023-04-24T10:48:03;5.05;;;1.40;;
2099;SDS011;1055;48.854;9.302;2023-04-24T10:50:52;5.13;;;1.80;;
2099;SDS011;1055;48.854;9.302;2023-04-24T10:53:22;4.90;;;1.60;;
2099;SDS011;1055;48.854;9.302;2023-04-24T10:55:50;6.30;;;2.30;;
2099;SDS011;1055;48.854;9.302;2023-04-24T10:58:23;5.03;;;1.63;;
2099;SDS011;1055;48.854;9.302;2023-04-24T11:00:57;6.47;;;2.08;;
2099;SDS011;1055;48.854;9.302;2023-04-24T11:03:26;6.97;;;2.30;;
2099;SDS011;1055;48.854;9.302;2023-04-24T11:08:28;5.10;;;1.90;;
2099;SDS011;1055;48.854;9.302;2023-04-24T11:10:57;5.53;;;1.57;;
2099;SDS011;1055;48.854;9.302;2023-04-24T11:13:27;6.07;;;1.90;;
2099;SDS011;1055;48.854;9.302;2023-04-24T11:16:14;5.93;;;1.83;;
2099;SDS011;1055;48.854;9.302;2023-04-24T11:18:45;5.28;;;1.80;;
2099;SDS011;1055;48.854;9.302;2023-04-24T11:21:17;5.07;;;1.87;;
2099;SDS011;1055;48.854;9.302;2023-04-24T11:23:44;6.45;;;1.92;;
2099;SDS011;1055;48.854;9.302;2023-04-24T11:26:12;5.55;;;1.52;;
2099;SDS011;1055;48.854;9.302;2023-04-24T11:28:46;6.13;;;1.80;;
2099;SDS011;1055;48.854;9.302;2023-04-24T11:36:39;5.35;;;1.92;;
2099;SDS011;1055;48.854;9.302;2023-04-24T11:39:07;5.82;;;1.60;;
2099;SDS011;1055;48.854;9.302;2023-04-24T11:41:33;4.77;;;1.53;;
2099;SDS011;1055;48.854;9.302;2023-04-24T11:44:00;5.20;;;1.90;;
2099;SDS011;1055;48.854;9.302;2023-04-24T11:46:30;6.30;;;2.67;;
2099;SDS011;1055;48.854;9.302;2023-04-24T11:48:57;4.95;;;1.67;;
2099;SDS011;1055;48.854;9.302;2023-04-24T11:51:24;5.97;;;2.30;;
2099;SDS011;1055;48.854;9.302;2023-04-24T11:53:51;5.70;;;2.20;;
2099;SDS011;1055;48.854;9.302;2023-04-24T11:56:19;4.90;;;1.80;;
2099;SDS011;1055;48.854;9.302;2023-04-24T11:58:47;4.90;;;1.83;;
2099;SDS011;1055;48.854;9.302;2023-04-24T12:01:13;4.80;;;1.80;;
2099;SDS011;1055;48.854;9.302;2023-04-24T12:03:39;7.72;;;2.42;;
2099;SDS011;1055;48.854;9.302;2023-04-24T12:06:08;5.57;;;1.73;;
2099;SDS011;1055;48.854;9.302;2023-04-24T12:08:37;5.97;;;1.90;;
2099;SDS011;1055;48.854;9.302;2023-04-24T12:11:05;7.95;;;1.70;;
2099;SDS011;1055;48.854;9.302;2023-04-24T12:13:32;5.10;;;1.50;;
2099;SDS011;1055;48.854;9.302;2023-04-24T12:16:00;5.00;;;1.60;;
2099;SDS011;1055;48.854;9.302;2023-04-24T12:18:29;4.72;;;1.50;;
2099;SDS011;1055;48.854;9.302;2023-04-24T12:21:01;5.20;;;1.98;;
2099;SDS011;1055;48.854;9.302;2023-04-24T12:23:43;4.90;;;1.40;;
2099;SDS011;1055;48.854;9.302;2023-04-24T12:26:17;5.03;;;2.10;;
2099;SDS011;1055;48.854;9.302;2023-04-24T12:28:46;5.25;;;1.85;;
2099;SDS011;1055;48.854;9.302;2023-04-24T12:31:16;5.65;;;1.92;;
2099;SDS011;1055;48.854;9.302;2023-04-24T12:33:42;6.37;;;2.40;;
2099;SDS011;1055;48.854;9.302;2023-04-24T12:36:12;6.40;;;1.93;;
2099;SDS011;1055;48.854;9.302;2023-04-24T12:38:39;4.90;;;2.07;;
2099;SDS011;1055;48.854;9.302;2023-04-24T12:41:10;4.97;;;1.83;;
2099;SDS011;1055;48.854;9.302;2023-04-24T12:43:38;4.77;;;1.77;;
2099;SDS011;1055;48.854;9.302;2023-04-24T12:46:16;4.88;;;1.60;;
2099;SDS011;1055;48.854;9.302;2023-04-24T12:48:42;4.93;;;1.70;;
2099;SDS011;1055;48.854;9.302;2023-04-24T12:51:07;5.00;;;1.90;;
2099;SDS011;1055;48.854;9.302;2023-04-24T12:53:33;5.80;;;2.20;;
2099;SDS011;1055;48.854;9.302;2023-04-24T12:55:58;5.50;;;1.90;;
2099;SDS011;1055;48.854;9.302;2023-04-24T12:58:24;4.60;;;1.70;;
2099;SDS011;1055;48.854;9.302;2023-04-24T13:00:50;5.37;;;1.90;;
2099;SDS011;1055;48.854;9.302;2023-04-24T13:03:15;5.27;;;2.33;;
2099;SDS011;1055;48.854;9.302;2023-04-24T13:05:42;4.60;;;1.53;;
2099;SDS011;1055;48.854;9.302;2023-04-24T13:08:08;6.20;;;1.80;;
2099;SDS011;1055;48.854;9.302;2023-04-24T13:10:34;5.17;;;1.83;;
2099;SDS011;1055;48.854;9.302;2023-04-24T13:13:00;6.53;;;2.30;;
2099;SDS011;1055;48.854;9.302;2023-04-24T13:15:26;5.30;;;1.90;;
2099;SDS011;1055;48.854;9.302;2023-04-24T13:17:54;5.50;;;1.80;;
2099;SDS011;1055;48.854;9.302;2023-04-24T13:20:19;4.60;;;1.60;;
2099;SDS011;1055;48.854;9.302;2023-04-24T13:22:45;5.40;;;1.83;;
2099;SDS011;1055;48.854;9.302;2023-04-24T13:25:10;4.93;;;1.73;;
2099;SDS011;1055;48.854;9.302;2023-04-24T13:27:39;4.80;;;1.50;;
2099;SDS011;1055;48.854;9.302;2023-04-24T13:30:05;5.50;;;2.10;;
2099;SDS011;1055;48.854;9.302;2023-04-24T13:32:32;5.30;;;1.60;;
2099;SDS011;1055;48.854;9.302;2023-04-24T13:34:58;5.83;;;2.00;;
2099;SDS011;1055;48.854;9.302;2023-04-24T13:37:24;5.00;;;1.80;;
2099;SDS011;1055;48.854;9.302;2023-04-24T13:39:49;5.70;;;2.20;;
2099;SDS011;1055;48.854;9.302;2023-04-24T13:42:15;5.90;;;2.35;;
2099;SDS011;1055;48.854;9.302;2023-04-24T13:44:41;6.50;;;2.00;;
2099;SDS011;1055;48.854;9.302;2023-04-24T13:47:08;6.10;;;1.98;;
2099;SDS011;1055;48.854;9.302;2023-04-24T13:49:34;5.70;;;2.35;;
2099;SDS011;1055;48.854;9.302;2023-04-24T13:52:00;6.40;;;3.03;;
2099;SDS011;1055;48.854;9.302;2023-04-24T13:54:26;7.10;;;2.20;;
2099;SDS011;1055;48.854;9.302;2023-04-24T13:56:52;6.23;;;3.20;;
2099;SDS011;1055;48.854;9.302;2023-04-24T13:59:18;5.97;;;2.60;;
2099;SDS011;1055;48.854;9.302;2023-04-24T14:01:45;6.80;;;2.13;;
2099;SDS011;1055;48.854;9.302;2023-04-24T14:04:11;5.13;;;1.90;;
2099;SDS011;1055;48.854;9.302;2023-04-24T14:06:37;5.90;;;2.10;;
2099;SDS011;1055;48.854;9.302;2023-04-24T14:09:02;5.30;;;2.13;;
2099;SDS011;1055;48.854;9.302;2023-04-24T14:11:28;5.47;;;1.93;;
2099;SDS011;1055;48.854;9.302;2023-04-24T14:13:57;5.73;;;2.27;;
2099;SDS011;1055;48.854;9.302;2023-04-24T14:16:22;5.55;;;1.73;;
2099;SDS011;1055;48.854;9.302;2023-04-24T14:18:48;4.93;;;2.00;;
2099;SDS011;1055;48.854;9.302;2023-04-24T14:21:14;5.10;;;2.23;;
2099;SDS011;1055;48.854;9.302;2023-04-24T14:23:39;5.03;;;1.70;;
2099;SDS011;1055;48.854;9.302;2023-04-24T14:26:05;5.40;;;2.20;;
2099;SDS011;1055;48.854;9.302;2023-04-24T14:28:30;6.00;;;2.50;;
2099;SDS011;1055;48.854;9.302;2023-04-24T14:30:57;5.07;;;2.50;;
2099;SDS011;1055;48.854;9.302;2023-04-24T14:33:23;5.23;;;1.83;;
2099;SDS011;1055;48.854;9.302;2023-04-24T14:35:48;6.70;;;2.40;;
2099;SDS011;1055;48.854;9.302;2023-04-24T14:38:14;5.90;;;2.53;;
2099;SDS011;1055;48.854;9.302;2023-04-24T14:40:40;6.50;;;2.57;;
2099;SDS011;1055;48.854;9.302;2023-04-24T14:43:05;4.80;;;1.90;;
2099;SDS011;1055;48.854;9.302;2023-04-24T14:45:31;5.67;;;2.90;;
2099;SDS011;1055;48.854;9.302;2023-04-24T14:47:57;5.50;;;2.13;;
2099;SDS011;1055;48.854;9.302;2023-04-24T14:50:23;5.20;;;1.83;;
2099;SDS011;1055;48.854;9.302;2023-04-24T14:52:52;6.57;;;2.40;;
2099;SDS011;1055;48.854;9.302;2023-04-24T14:55:19;5.20;;;2.00;;
2099;SDS011;1055;48.854;9.302;2023-04-24T14:57:45;5.60;;;2.47;;
2099;SDS011;1055;48.854;9.302;2023-04-24T15:00:11;7.10;;;2.50;;
2099;SDS011;1055;48.854;9.302;2023-04-24T15:02:37;5.87;;;2.30;;
2099;SDS011;1055;48.854;9.302;2023-04-24T15:05:06;5.70;;;2.10;;
2099;SDS011;1055;48.854;9.302;2023-04-24T15:07:33;6.50;;;2.17;;
2099;SDS011;1055;48.854;9.302;2023-04-24T15:10:00;4.67;;;1.77;;
2099;SDS011;1055;48.854;9.302;2023-04-24T15:12:26;6.10;;;2.53;;
2099;SDS011;1055;48.854;9.302;2023-04-24T15:14:53;7.07;;;2.10;;
2099;SDS011;1055;48.854;9.302;2023-04-24T15:17:19;4.70;;;1.73;;
2099;SDS011;1055;48.854;9.302;2023-04-24T15:19:45;8.30;;;2.43;;
2099;SDS011;1055;48.854;9.302;2023-04-24T15:22:11;5.70;;;2.40;;
2099;SDS011;1055;48.854;9.302;2023-04-24T15:24:37;6.27;;;2.40;;
2099;SDS011;1055;48.854;9.302;2023-04-24T15:27:03;5.60;;;2.40;;
2099;SDS011;1055;48.854;9.302;2023-04-24T15:29:29;7.53;;;2.47;;
2099;SDS011;1055;48.854;9.302;2023-04-24T15:31:54;5.43;;;2.03;;
2099;SDS011;1055;48.854;9.302;2023-04-24T15:34:20;5.63;;;2.53;;
2099;SDS011;1055;48.854;9.302;2023-04-24T15:36:46;5.50;;;2.00;;